Time;durP1;ratioP1;P1;durP2;ratioP2;P2;SDS_P1;SDS_P2;PMS_P1;PMS_P2;Temp;Humidity;BMP_temperature;BMP_pressure;BME280_temperature;BME280_humidity;BME280_pressure;Samples;Min_cycle;Max_cycle;Signal;HPM_P1;HPM_P2
2023/06/15 00:01:55;;;;;;;;;5.00;5.00;;;;;19.49;76.10;100732.41;5040060;28;45692;-76
2023/06/15 00:04:20;;;;;;;;;5.67;5.00;;;;;19.54;75.31;100733.28;5026954;28;45327;-86
2023/06/15 00:06:46;;;;;;;;;5.00;5.00;;;;;19.66;75.02;100737.63;5021716;28;45423;-86
2023/06/15 00:09:12;;;;;;;;;5.33;5.00;;;;;19.72;75.57;100748.25;5040062;28;45445;-85
2023/06/15 00:11:38;;;;;;;;;6.67;6.00;;;;;19.73;75.07;100741.16;5054609;28;45394;-87
2023/06/15 00:14:04;;;;;;;;;6.67;6.00;;;;;19.68;74.79;100727.91;5057007;28;45510;-86
2023/06/15 00:16:31;;;;;;;;;6.00;5.00;;;;;19.76;74.42;100734.09;5045652;28;45374;-87
2023/06/15 00:18:58;;;;;;;;;6.33;6.33;;;;;19.75;74.16;100729.66;5042152;28;45697;-77
2023/06/15 00:21:26;;;;;;;;;6.00;5.00;;;;;19.70;74.65;100726.13;5044913;28;45380;-79
2023/06/15 00:23:51;;;;;;;;;6.00;5.00;;;;;19.57;74.85;100711.16;5055061;28;45337;-79
2023/06/15 00:26:17;;;;;;;;;6.67;5.33;;;;;19.56;74.75;100712.06;5039268;28;45513;-77
2023/06/15 00:28:42;;;;;;;;;8.00;6.00;;;;;19.67;75.12;100728.78;5037915;28;45503;-79
2023/06/15 00:31:08;;;;;;;;;6.00;5.67;;;;;19.46;74.71;100692.69;5052320;28;45595;-77
2023/06/15 00:33:33;;;;;;;;;5.33;5.00;;;;;19.70;74.80;100731.44;5056656;28;45460;-79
2023/06/15 00:35:59;;;;;;;;;6.00;5.33;;;;;19.74;74.19;100729.69;5040491;28;45431;-84
2023/06/15 00:38:25;;;;;;;;;5.67;5.00;;;;;19.65;73.93;100706.72;5056083;28;45414;-76
2023/06/15 00:40:51;;;;;;;;;5.33;5.33;;;;;19.60;73.32;100696.13;5044150;28;45489;-75
2023/06/15 00:43:21;;;;;;;;;6.00;6.00;;;;;19.68;73.29;100712.00;5054691;28;46302;-77
2023/06/15 00:45:47;;;;;;;;;5.67;5.33;;;;;19.65;74.10;100712.00;5043775;28;45541;-80
2023/06/15 00:48:13;;;;;;;;;6.33;5.33;;;;;19.74;74.43;100730.56;5058682;28;45376;-78
2023/06/15 00:50:41;;;;;;;;;6.00;6.00;;;;;19.63;73.68;100701.41;5037393;28;45580;-79
2023/06/15 00:53:09;;;;;;;;;4.67;4.67;;;;;19.81;72.95;100726.97;5038700;28;46110;-78
2023/06/15 00:55:36;;;;;;;;;4.33;4.00;;;;;19.77;73.70;100717.28;5052851;28;45382;-78
2023/06/15 00:58:02;;;;;;;;;6.00;6.00;;;;;19.70;73.68;100715.53;5047225;28;45434;-78
2023/06/15 01:00:31;;;;;;;;;4.67;4.67;;;;;19.58;73.92;100695.28;5045054;28;45411;-77
2023/06/15 01:02:59;;;;;;;;;7.00;6.00;;;;;19.64;74.62;100719.09;5037779;28;47373;-78
2023/06/15 01:05:25;;;;;;;;;8.67;7.33;;;;;19.45;75.26;100694.44;5037893;28;45501;-83
2023/06/15 01:07:54;;;;;;;;;4.67;4.67;;;;;19.50;74.03;100699.72;5048231;28;46041;-78
2023/06/15 01:10:23;;;;;;;;;6.67;6.00;;;;;19.65;74.56;100720.84;5043988;28;45681;-81
2023/06/15 01:12:54;;;;;;;;;5.00;5.00;;;;;19.57;73.96;100704.09;5053654;28;45535;-80
2023/06/15 01:15:21;;;;;;;;;4.00;4.00;;;;;19.54;74.54;100712.06;5040162;28;45265;-78
2023/06/15 01:17:53;;;;;;;;;6.00;6.00;;;;;19.59;74.33;100718.22;5040133;28;45303;-79
2023/06/15 01:20:27;;;;;;;;;7.00;6.33;;;;;19.62;74.38;100715.56;5041591;28;45540;-77
2023/06/15 01:23:19;;;;;;;;;4.00;4.00;;;;;19.62;74.11;100718.22;5052670;28;46372;-79
2023/06/15 01:25:44;;;;;;;;;6.00;6.00;;;;;19.66;73.86;100711.13;5032716;28;45555;-77
2023/06/15 01:28:12;;;;;;;;;5.67;5.00;;;;;19.62;74.65;100710.25;5057377;28;45244;-77
2023/06/15 01:30:42;;;;;;;;;7.33;6.33;;;;;19.60;74.48;100704.09;5053909;28;45401;-78
2023/06/15 01:33:08;;;;;;;;;7.00;7.00;;;;;19.63;73.73;100712.00;5040034;28;46455;-79
2023/06/15 01:35:35;;;;;;;;;7.00;6.67;;;;;19.59;74.70;100704.09;5036409;28;45426;-82
2023/06/15 01:38:02;;;;;;;;;6.00;4.67;;;;;19.61;73.98;100697.88;5021789;28;45623;-77
2023/06/15 01:40:29;;;;;;;;;6.00;5.33;;;;;19.64;74.05;100702.31;5057088;28;45406;-77
2023/06/15 01:42:57;;;;;;;;;6.33;6.33;;;;;19.60;73.54;100706.75;5056243;28;47259;-77
2023/06/15 01:45:24;;;;;;;;;5.00;5.00;;;;;19.50;74.04;100691.78;5042974;28;45322;-78
2023/06/15 01:47:51;;;;;;;;;8.00;6.00;;;;;19.56;74.08;100698.81;5052111;28;45533;-78
2023/06/15 01:50:18;;;;;;;;;5.00;5.00;;;;;19.44;74.03;100671.47;5043877;28;45279;-78
2023/06/15 01:52:45;;;;;;;;;6.67;6.00;;;;;19.60;74.34;100700.56;5045611;28;45427;-80
2023/06/15 01:55:11;;;;;;;;;4.33;4.33;;;;;19.64;74.03;100702.31;5052780;28;45462;-78
2023/06/15 01:57:38;;;;;;;;;6.00;6.00;;;;;19.53;74.20;100688.22;5040830;28;45570;-82
2023/06/15 02:00:06;;;;;;;;;5.00;5.00;;;;;19.56;74.07;100698.81;5057574;28;45244;-79
2023/06/15 02:02:32;;;;;;;;;6.33;6.33;;;;;19.58;74.04;100694.41;5045354;28;46069;-79
2023/06/15 02:04:57;;;;;;;;;6.00;5.00;;;;;19.60;73.54;100695.28;5048759;28;45391;-76
2023/06/15 02:07:23;;;;;;;;;5.33;4.33;;;;;19.51;73.88;100682.06;5036398;28;45482;-80
2023/06/15 02:09:49;;;;;;;;;6.67;6.00;;;;;19.66;74.20;100700.53;5037186;28;45467;-79
2023/06/15 02:12:14;;;;;;;;;2.33;2.33;;;;;19.43;73.90;100669.72;5030370;28;45417;-78
2023/06/15 02:14:41;;;;;;;;;5.00;5.00;;;;;19.64;74.25;100700.53;5056747;28;45530;-79
2023/06/15 02:17:07;;;;;;;;;4.00;4.00;;;;;19.57;73.84;100685.53;5040116;28;45430;-79
2023/06/15 02:19:32;;;;;;;;;6.00;5.00;;;;;19.69;74.06;100695.19;5048576;28;45328;-78
2023/06/15 02:21:58;;;;;;;;;6.67;6.00;;;;;19.69;73.32;100687.25;5037383;28;45887;-83
2023/06/15 02:24:23;;;;;;;;;5.00;5.00;;;;;19.55;73.54;100665.25;5052042;28;45535;-86
2023/06/15 02:26:49;;;;;;;;;6.67;5.00;;;;;19.58;73.56;100673.19;5056032;28;45477;-86
2023/06/15 02:29:15;;;;;;;;;6.67;6.00;;;;;19.64;73.64;100687.28;5050831;28;45263;-87
2023/06/15 02:31:40;;;;;;;;;6.00;5.00;;;;;19.57;72.76;100674.94;5037007;28;45431;-86
2023/06/15 02:34:06;;;;;;;;;6.33;6.00;;;;;19.72;72.68;100694.38;5036655;28;45378;-86
2023/06/15 02:36:32;;;;;;;;;5.67;5.00;;;;;19.65;72.80;100680.22;5038432;28;45427;-87
2023/06/15 02:38:59;;;;;;;;;6.67;6.00;;;;;19.74;72.52;100698.75;5043318;28;45532;-87
2023/06/15 02:41:24;;;;;;;;;7.33;6.00;;;;;19.65;72.55;100673.13;5034234;28;45552;-84
2023/06/15 02:43:52;;;;;;;;;5.67;5.33;;;;;19.68;72.88;100682.84;5043413;28;45411;-87
2023/06/15 02:46:18;;;;;;;;;5.67;5.67;;;;;19.63;72.73;100674.03;5046805;28;45419;-86
2023/06/15 02:48:44;;;;;;;;;6.33;6.00;;;;;19.66;72.65;100677.56;5038819;28;45452;-78
2023/06/15 02:51:10;;;;;;;;;6.33;5.67;;;;;19.45;72.73;100645.88;5037658;28;45600;-78
2023/06/15 02:53:36;;;;;;;;;5.00;4.67;;;;;19.59;72.61;100675.81;5036456;28;45316;-77
2023/06/15 02:56:02;;;;;;;;;6.00;6.00;;;;;19.55;73.10;100679.38;5025285;28;47206;-80
2023/06/15 02:58:32;;;;;;;;;4.67;4.67;;;;;19.48;73.54;100677.66;5033784;28;45591;-83
2023/06/15 03:01:00;;;;;;;;;5.33;5.33;;;;;19.41;73.25;100660.00;5037729;28;45368;-85
2023/06/15 03:03:29;;;;;;;;;5.33;5.00;;;;;19.63;73.58;100690.81;5055876;28;45584;-86
2023/06/15 03:05:56;;;;;;;;;5.00;5.00;;;;;19.64;73.50;100695.25;5041170;28;45557;-86
2023/06/15 03:08:23;;;;;;;;;5.33;4.67;;;;;19.59;75.31;100694.38;5038542;28;45478;-87
2023/06/15 03:10:52;;;;;;;;;6.67;6.33;;;;;19.34;75.08;100653.88;5034920;28;46217;-86
2023/06/15 03:13:17;;;;;;;;;6.00;6.00;;;;;19.36;74.99;100661.78;5031323;28;45328;-84
2023/06/15 03:15:43;;;;;;;;;5.00;5.00;;;;;19.54;75.42;100693.53;5051775;28;45448;-84
2023/06/15 03:18:11;;;;;;;;;6.00;6.00;;;;;19.61;75.03;100699.66;5051929;28;45536;-87
2023/06/15 03:20:37;;;;;;;;;5.00;5.00;;;;;19.56;74.82;100689.09;5036655;28;46141;-82
2023/06/15 03:23:03;;;;;;;;;6.00;5.67;;;;;19.56;74.29;100689.09;5052547;28;45845;-85
2023/06/15 03:25:31;;;;;;;;;6.00;5.33;;;;;19.59;74.29;100690.84;5022491;28;45597;-86
2023/06/15 03:27:59;;;;;;;;;5.00;5.00;;;;;19.56;73.84;100688.22;5055426;28;45609;-86
2023/06/15 03:30:28;;;;;;;;;5.00;4.33;;;;;19.52;73.28;100681.16;5049888;28;46081;-84
2023/06/15 03:32:54;;;;;;;;;6.00;6.00;;;;;19.53;73.15;100681.16;5045202;28;45568;-87
2023/06/15 03:35:22;;;;;;;;;4.00;4.00;;;;;19.61;73.24;100697.88;5036483;28;45521;-86
2023/06/15 03:37:48;;;;;;;;;5.33;5.33;;;;;19.47;73.57;100683.81;5034709;28;45638;-87
2023/06/15 03:40:13;;;;;;;;;7.67;6.00;;;;;19.47;73.63;100683.81;5043985;28;47773;-85
2023/06/15 03:42:40;;;;;;;;;6.00;5.00;;;;;19.53;73.92;100705.00;5046819;28;45375;-84
2023/06/15 03:45:06;;;;;;;;;7.00;6.00;;;;;19.42;73.72;100680.34;5041990;28;46071;-84
2023/06/15 03:47:32;;;;;;;;;6.00;5.00;;;;;19.56;73.92;100702.34;5052277;28;45358;-87
2023/06/15 03:49:58;;;;;;;;;6.00;6.00;;;;;19.43;73.93;100674.13;5035632;28;45695;-83
2023/06/15 03:52:25;;;;;;;;;7.00;6.00;;;;;19.48;74.09;100698.84;5035933;28;45448;-86
2023/06/15 03:54:51;;;;;;;;;7.33;6.33;;;;;19.45;73.99;100697.06;5037748;28;45484;-85
2023/06/15 03:57:17;;;;;;;;;8.33;8.00;;;;;19.40;74.83;100700.66;5038216;28;45489;-86
2023/06/15 03:59:43;;;;;;;;;5.00;5.00;;;;;19.37;74.92;100703.31;5054021;28;45841;-87
2023/06/15 04:02:08;;;;;;;;;7.67;6.00;;;;;19.24;75.29;100697.19;5037719;28;45638;-85
2023/06/15 04:04:34;;;;;;;;;5.00;4.33;;;;;19.12;74.90;100674.25;5056350;28;45389;-87
2023/06/15 04:07:00;;;;;;;;;5.00;5.00;;;;;19.05;74.43;100654.84;5047433;28;45508;-83
2023/06/15 04:09:26;;;;;;;;;6.33;6.33;;;;;19.30;74.29;100701.53;5053956;28;45553;-85
2023/06/15 04:11:51;;;;;;;;;6.00;6.00;;;;;19.15;74.18;100676.88;5037369;28;46319;-86
2023/06/15 04:14:18;;;;;;;;;7.00;7.00;;;;;19.19;74.42;100689.22;5040764;28;45591;-87
2023/06/15 04:16:44;;;;;;;;;5.00;5.00;;;;;19.08;74.61;100686.63;5048983;28;45544;-86
2023/06/15 04:19:10;;;;;;;;;6.67;6.00;;;;;19.10;74.75;100693.66;5050275;28;46380;-86
2023/06/15 04:21:36;;;;;;;;;7.00;6.33;;;;;19.14;74.51;100706.00;5038973;28;45343;-86
2023/06/15 04:24:03;;;;;;;;;6.00;6.00;;;;;19.18;75.35;100724.56;5055246;28;45479;-87
2023/06/15 04:26:29;;;;;;;;;6.00;6.00;;;;;19.11;75.76;100728.09;5046130;28;45515;-87
2023/06/15 04:28:57;;;;;;;;;8.33;7.00;;;;;19.14;75.95;100732.50;5051643;28;45542;-87
2023/06/15 04:31:24;;;;;;;;;7.00;6.00;;;;;19.00;75.73;100706.03;5040080;28;45284;-86
2023/06/15 04:33:52;;;;;;;;;7.00;6.00;;;;;19.07;75.44;100711.31;5041904;28;45288;-86
2023/06/15 04:36:18;;;;;;;;;5.00;5.00;;;;;18.95;75.32;100692.81;5056985;28;45318;-87
2023/06/15 04:38:48;;;;;;;;;7.67;6.67;;;;;19.16;75.46;100731.63;5039037;28;46339;-83
2023/06/15 04:41:14;;;;;;;;;7.00;6.00;;;;;18.95;75.28;100700.75;5056693;28;45441;-78
2023/06/15 04:43:40;;;;;;;;;8.00;7.00;;;;;18.84;75.62;100684.00;5045930;28;45422;-84
2023/06/15 04:46:06;;;;;;;;;7.00;7.00;;;;;19.05;75.50;100717.50;5054797;28;45420;-86
2023/06/15 04:48:32;;;;;;;;;6.67;6.00;;;;;19.17;75.59;100733.38;5051850;28;47890;-87
2023/06/15 04:50:59;;;;;;;;;7.00;6.00;;;;;19.04;75.26;100710.47;5051801;28;45648;-83
2023/06/15 04:53:25;;;;;;;;;6.00;6.00;;;;;19.30;74.38;100733.34;5040456;28;45440;-79
2023/06/15 04:55:51;;;;;;;;;5.67;5.00;;;;;19.23;74.30;100733.34;5054211;28;45422;-76
2023/06/15 04:58:17;;;;;;;;;8.00;7.00;;;;;19.34;74.65;100754.53;5042293;28;45495;-77
2023/06/15 05:00:43;;;;;;;;;6.33;6.33;;;;;19.31;73.97;100743.94;5046872;28;45443;-82
2023/06/15 05:03:10;;;;;;;;;6.33;6.00;;;;;19.38;73.74;100760.72;5030167;28;45270;-76
2023/06/15 05:05:36;;;;;;;;;6.33;6.33;;;;;19.27;74.05;100739.53;5058697;28;45377;-79
2023/06/15 05:08:02;;;;;;;;;7.67;7.00;;;;;19.34;73.98;100759.84;5038785;28;47772;-80
2023/06/15 05:10:28;;;;;;;;;6.00;6.00;;;;;19.28;73.82;100752.78;5043620;28;45265;-79
2023/06/15 05:12:54;;;;;;;;;6.33;5.67;;;;;19.31;73.91;100751.88;5030931;28;45530;-78
2023/06/15 05:15:20;;;;;;;;;6.67;6.67;;;;;19.29;74.00;100751.00;5020624;28;45571;-77
2023/06/15 05:17:45;;;;;;;;;8.00;8.00;;;;;19.27;73.80;100758.06;5038287;28;46657;-78
2023/06/15 05:20:11;;;;;;;;;8.00;8.00;;;;;19.33;73.27;100754.53;5038950;28;45425;-77
2023/06/15 05:22:37;;;;;;;;;6.67;6.33;;;;;19.35;73.56;100752.75;5038755;28;45497;-79
2023/06/15 05:25:03;;;;;;;;;5.33;5.00;;;;;19.51;73.57;100774.78;5045968;28;45413;-77
2023/06/15 05:27:29;;;;;;;;;7.00;6.00;;;;;19.53;73.30;100775.66;5037421;28;46020;-77
2023/06/15 05:29:54;;;;;;;;;6.00;6.00;;;;;19.57;73.22;100774.75;5051836;28;45383;-79
2023/06/15 05:32:20;;;;;;;;;10.00;7.33;;;;;19.41;73.25;100748.31;5046637;28;45528;-77
2023/06/15 05:34:45;;;;;;;;;8.00;5.33;;;;;19.57;73.47;100769.47;5045119;28;46224;-86
2023/06/15 05:37:11;;;;;;;;;7.00;7.00;;;;;19.60;73.12;100778.28;5051636;28;46228;-84
2023/06/15 05:39:36;;;;;;;;;6.33;6.00;;;;;19.56;73.54;100771.25;5037105;28;45233;-79
2023/06/15 05:42:02;;;;;;;;;7.00;7.00;;;;;19.46;72.63;100745.66;5036713;28;45265;-79
2023/06/15 05:44:28;;;;;;;;;8.00;6.67;;;;;19.68;72.34;100773.84;5051205;28;45261;-81
2023/06/15 05:46:53;;;;;;;;;7.00;6.33;;;;;19.71;71.81;100769.41;5040621;28;46220;-81
2023/06/15 05:49:19;;;;;;;;;6.00;6.00;;;;;19.79;71.48;100770.28;5039558;28;46125;-81
2023/06/15 05:51:45;;;;;;;;;7.00;6.00;;;;;19.77;71.19;100769.41;5048463;28;45176;-79
2023/06/15 05:54:11;;;;;;;;;5.67;5.67;;;;;19.86;70.99;100777.34;5033448;28;45340;-77
2023/06/15 05:56:36;;;;;;;;;5.00;5.00;;;;;19.96;71.15;100784.38;5039305;28;45821;-79
2023/06/15 05:59:02;;;;;;;;;5.33;5.00;;;;;19.93;70.23;100763.16;5019887;28;45493;-77
2023/06/15 06:01:28;;;;;;;;;5.00;5.00;;;;;20.00;70.37;100770.19;5038189;28;45416;-81
2023/06/15 06:03:53;;;;;;;;;6.00;6.00;;;;;20.02;69.92;100786.97;5057974;28;45292;-83
2023/06/15 06:06:19;;;;;;;;;6.00;4.67;;;;;20.00;70.43;100785.22;5040354;28;46711;-79
2023/06/15 06:08:44;;;;;;;;;5.00;5.00;;;;;20.09;70.54;100777.22;5049315;28;46602;-79
2023/06/15 06:11:10;;;;;;;;;6.33;6.00;;;;;20.23;69.64;100786.00;5042698;28;45457;-80
2023/06/15 06:13:35;;;;;;;;;5.67;5.67;;;;;20.19;69.97;100763.03;5052896;28;45235;-78
2023/06/15 06:16:01;;;;;;;;;8.00;8.00;;;;;20.15;70.35;100766.56;5039128;28;46670;-85
2023/06/15 06:18:27;;;;;;;;;5.00;5.00;;;;;20.15;70.10;100755.94;5055085;28;45177;-88
2023/06/15 06:20:53;;;;;;;;;5.67;5.67;;;;;20.27;69.60;100771.81;5038838;28;45574;-78
2023/06/15 06:23:18;;;;;;;;;6.33;6.00;;;;;20.13;69.47;100736.53;5036318;28;45632;-78
2023/06/15 06:25:44;;;;;;;;;5.33;4.67;;;;;20.52;69.38;100779.59;5036829;28;45536;-83
2023/06/15 06:28:09;;;;;;;;;6.33;6.00;;;;;20.54;69.24;100763.69;5048320;28;45473;-87
2023/06/15 06:30:35;;;;;;;;;6.00;6.00;;;;;20.71;69.10;100787.44;5041907;28;45264;-88
2023/06/15 06:33:03;;;;;;;;;6.00;6.00;;;;;20.75;68.79;100781.22;5055976;28;45550;-86
2023/06/15 06:35:28;;;;;;;;;5.00;5.00;;;;;20.81;68.04;100782.06;5049185;28;45954;-88
2023/06/15 06:37:54;;;;;;;;;4.67;4.67;;;;;20.94;67.57;100792.59;5029547;28;45979;-88
2023/06/15 06:40:20;;;;;;;;;6.00;5.33;;;;;20.92;67.00;100775.78;5042474;28;45521;-89
2023/06/15 06:42:45;;;;;;;;;6.33;6.33;;;;;21.09;66.56;100795.09;5047544;28;45462;-86
2023/06/15 06:45:11;;;;;;;;;5.00;4.00;;;;;21.08;65.92;100790.66;5046450;28;45560;-88
2023/06/15 06:47:37;;;;;;;;;7.00;4.33;;;;;21.04;66.13;100773.88;5045357;28;45517;-88
2023/06/15 06:50:05;;;;;;;;;4.00;4.00;;;;;20.99;64.97;100745.59;5019868;28;45363;-93
2023/06/15 06:52:31;;;;;;;;;7.00;6.33;;;;;21.23;65.35;100787.00;5053978;28;45291;-92
2023/06/15 06:54:56;;;;;;;;;5.33;5.00;;;;;21.21;64.67;100779.03;5043106;28;45529;-87
2023/06/15 06:57:22;;;;;;;;;8.00;5.67;;;;;21.33;64.60;100782.44;5038928;28;45579;-84
2023/06/15 06:59:47;;;;;;;;;6.33;6.00;;;;;21.33;64.53;100763.84;5056827;28;45452;-80
2023/06/15 07:02:13;;;;;;;;;6.00;6.00;;;;;21.50;63.87;100777.88;5037204;28;45541;-84
2023/06/15 07:04:39;;;;;;;;;4.67;3.67;;;;;21.73;63.75;100798.00;5041597;28;46188;-83
2023/06/15 07:07:05;;;;;;;;;5.33;5.00;;;;;21.89;62.84;100799.56;5044154;28;45382;-82
2023/06/15 07:09:31;;;;;;;;;7.33;6.00;;;;;21.98;62.14;100785.25;5038305;28;45494;-76
2023/06/15 07:11:56;;;;;;;;;5.00;5.00;;;;;22.16;61.68;100778.81;5034700;28;45682;-77
2023/06/15 07:14:22;;;;;;;;;4.67;4.67;;;;;22.34;61.29;100770.59;5035429;28;45422;-85
2023/06/15 07:16:48;;;;;;;;;5.00;5.00;;;;;22.74;60.35;100793.94;5042981;28;45521;-78
2023/06/15 07:19:13;;;;;;;;;6.67;6.00;;;;;23.30;58.87;100783.22;5035857;28;45462;-78
2023/06/15 07:21:41;;;;;;;;;5.67;5.00;;;;;24.11;56.03;100794.03;5039470;28;45455;-75
2023/06/15 07:24:07;;;;;;;;;4.00;4.00;;;;;24.28;55.29;100780.31;5035641;28;45612;-75
2023/06/15 07:26:33;;;;;;;;;4.33;4.33;;;;;24.53;55.39;100782.44;5045405;28;45535;-75
2023/06/15 07:28:58;;;;;;;;;5.00;5.00;;;;;24.63;53.22;100786.66;5023727;28;45729;-75
2023/06/15 07:31:24;;;;;;;;;5.00;5.00;;;;;24.59;54.97;100796.53;5034480;28;45461;-76
2023/06/15 07:33:50;;;;;;;;;6.33;5.67;;;;;24.46;54.41;100783.47;5043360;28;45470;-76
2023/06/15 07:36:15;;;;;;;;;6.67;5.67;;;;;24.36;53.80;100781.00;5034244;28;45670;-78
2023/06/15 07:38:41;;;;;;;;;7.00;5.00;;;;;24.24;54.75;100772.41;5042700;28;45442;-76
2023/06/15 07:41:07;;;;;;;;;5.00;5.00;;;;;24.35;54.19;100792.63;5034519;28;45494;-80
2023/06/15 07:43:32;;;;;;;;;6.00;6.00;;;;;24.31;53.45;100796.28;5046415;28;45452;-80
2023/06/15 07:45:58;;;;;;;;;6.00;5.00;;;;;23.82;53.45;100720.84;5039482;28;45598;-80
2023/06/15 07:48:23;;;;;;;;;5.00;4.67;;;;;24.04;53.64;100773.75;5047395;28;45580;-81
2023/06/15 07:50:49;;;;;;;;;5.00;5.00;;;;;24.12;54.05;100798.47;5044411;28;45458;-80
2023/06/15 07:53:15;;;;;;;;;5.33;5.33;;;;;24.01;54.59;100773.78;5044170;28;45382;-79
2023/06/15 07:55:40;;;;;;;;;5.00;3.67;;;;;24.18;54.68;100792.13;5047518;28;45673;-83
2023/06/15 07:58:06;;;;;;;;;6.00;5.00;;;;;24.13;54.88;100788.66;5048221;28;45615;-82
2023/06/15 08:00:32;;;;;;;;;5.00;4.67;;;;;24.09;54.23;100779.84;5049294;28;45918;-83
2023/06/15 08:02:58;;;;;;;;;4.00;4.00;;;;;24.26;54.29;100806.16;5048225;28;46087;-82
2023/06/15 08:05:23;;;;;;;;;5.00;5.00;;;;;24.15;54.01;100792.16;5052756;28;45489;-82
2023/06/15 08:07:49;;;;;;;;;5.00;4.33;;;;;24.18;54.27;100801.00;5046499;28;45260;-81
2023/06/15 08:10:15;;;;;;;;;6.00;6.00;;;;;24.04;54.49;100797.75;5053417;28;45586;-81
2023/06/15 08:12:40;;;;;;;;;6.00;5.67;;;;;24.07;55.13;100803.00;5053670;28;46116;-82
2023/06/15 08:15:06;;;;;;;;;6.67;5.67;;;;;24.07;55.35;100796.81;5040865;28;45501;-82
2023/06/15 08:17:32;;;;;;;;;5.00;5.00;;;;;23.96;55.06;100795.25;5044145;28;45434;-77
2023/06/15 08:19:57;;;;;;;;;7.33;6.33;;;;;23.97;55.18;100797.03;5030367;28;45555;-77
2023/06/15 08:22:23;;;;;;;;;4.67;4.67;;;;;24.13;55.69;100807.34;5031638;28;48011;-76
2023/06/15 08:24:49;;;;;;;;;6.33;6.00;;;;;24.12;55.47;100789.59;5050404;28;45536;-77
2023/06/15 08:27:14;;;;;;;;;7.00;6.00;;;;;24.15;55.07;100802.84;5055131;28;45375;-77
2023/06/15 08:29:44;;;;;;;;;6.00;6.00;;;;;23.80;55.66;100791.16;5058305;28;45448;-76
2023/06/15 08:32:13;;;;;;;;;5.67;5.67;;;;;24.00;55.01;100791.59;5041485;28;46333;-76
2023/06/15 08:34:43;;;;;;;;;5.00;5.00;;;;;24.10;55.31;100791.41;5040471;28;45335;-76
2023/06/15 08:37:11;;;;;;;;;6.00;6.00;;;;;24.41;54.35;100787.13;5040439;28;45711;-77
2023/06/15 08:39:37;;;;;;;;;5.00;4.00;;;;;24.69;53.89;100785.59;5056843;28;45603;-77
2023/06/15 08:42:03;;;;;;;;;6.00;6.00;;;;;24.92;53.09;100779.69;5056832;28;45304;-77
2023/06/15 08:44:33;;;;;;;;;6.00;5.67;;;;;25.17;52.30;100804.00;5039341;28;45233;-77
2023/06/15 08:47:01;;;;;;;;;4.00;4.00;;;;;25.18;52.65;100773.66;5055229;28;45393;-76
2023/06/15 08:49:28;;;;;;;;;5.00;5.00;;;;;25.48;51.01;100798.69;5048744;28;45461;-76
2023/06/15 08:51:56;;;;;;;;;6.00;5.00;;;;;25.53;50.53;100783.41;5051901;28;46831;-76
2023/06/15 08:54:24;;;;;;;;;4.00;4.00;;;;;25.82;47.96;100795.06;5045503;28;45367;-76
2023/06/15 08:56:49;;;;;;;;;5.00;4.00;;;;;26.64;48.86;100793.50;5040010;28;45321;-76
2023/06/15 08:59:15;;;;;;;;;4.00;4.00;;;;;26.92;46.40;100792.59;5041044;28;45324;-76
2023/06/15 09:01:43;;;;;;;;;5.00;5.00;;;;;26.59;46.10;100796.31;5052166;28;45460;-76
2023/06/15 09:04:09;;;;;;;;;4.00;3.67;;;;;26.53;47.29;100792.94;5040425;28;45246;-81
2023/06/15 09:06:35;;;;;;;;;7.33;6.33;;;;;26.54;48.21;100789.31;5049680;28;45434;-79
2023/06/15 09:09:03;;;;;;;;;6.00;5.00;;;;;26.66;48.36;100788.06;5041392;28;45470;-76
2023/06/15 09:11:28;;;;;;;;;5.00;5.00;;;;;26.76;48.64;100792.22;5037459;28;46166;-76
2023/06/15 09:13:55;;;;;;;;;6.00;4.67;;;;;26.81;48.33;100792.94;5046097;28;45636;-77
2023/06/15 09:16:21;;;;;;;;;8.00;5.00;;;;;26.83;48.70;100776.81;5053858;28;45452;-76
2023/06/15 09:18:53;;;;;;;;;7.33;7.33;;;;;26.89;49.04;100784.63;5037861;28;45457;-77
2023/06/15 09:21:21;;;;;;;;;12.33;8.33;;;;;26.79;48.75;100763.50;5037823;28;46143;-75
2023/06/15 09:23:47;;;;;;;;;7.67;7.00;;;;;26.94;48.55;100780.00;5038501;28;45483;-77
2023/06/15 09:26:22;;;;;;;;;8.00;7.00;;;;;27.01;48.40;100796.75;5040047;28;45285;-77
2023/06/15 09:28:47;;;;;;;;;4.33;4.00;;;;;26.83;47.76;100787.53;5020119;28;45519;-76
2023/06/15 09:31:31;;;;;;;;;7.33;6.00;;;;;26.88;48.67;100791.81;5043516;28;48038;-77
2023/06/15 09:34:23;;;;;;;;;5.00;5.00;;;;;26.75;48.32;100787.78;5056542;28;45529;-77
2023/06/15 09:36:49;;;;;;;;;4.67;4.67;;;;;26.74;48.42;100788.69;5053026;28;45526;-75
2023/06/15 09:39:20;;;;;;;;;7.33;6.33;;;;;26.78;48.10;100793.06;5048615;28;45460;-76
2023/06/15 09:42:00;;;;;;;;;5.33;4.00;;;;;26.71;48.64;100797.72;5038289;28;47224;-77
2023/06/15 09:44:26;;;;;;;;;5.33;5.33;;;;;26.76;48.04;100805.63;5037131;28;45475;-77
2023/06/15 09:46:57;;;;;;;;;5.00;5.00;;;;;26.79;48.46;100789.44;5043154;28;45377;-76
2023/06/15 09:49:27;;;;;;;;;7.33;7.00;;;;;26.94;47.88;100788.06;5038091;28;45351;-77
2023/06/15 09:51:54;;;;;;;;;7.00;6.00;;;;;27.13;48.14;100805.22;5035884;28;45402;-77
2023/06/15 09:54:22;;;;;;;;;6.00;6.00;;;;;27.19;47.33;100801.47;5036343;28;45227;-77
2023/06/15 09:56:50;;;;;;;;;5.33;5.33;;;;;26.53;47.65;100750.94;5048230;28;45479;-76
2023/06/15 09:59:16;;;;;;;;;6.00;6.00;;;;;26.55;48.33;100800.00;5031602;28;45399;-75
2023/06/15 10:01:45;;;;;;;;;6.00;5.67;;;;;26.49;48.71;100810.03;5038670;28;47101;-75
2023/06/15 10:04:13;;;;;;;;;6.00;5.33;;;;;26.63;49.38;100820.34;5037663;28;45490;-74
2023/06/15 10:06:43;;;;;;;;;6.00;6.00;;;;;26.75;49.02;100799.38;5029983;28;45505;-73
2023/06/15 10:09:10;;;;;;;;;5.33;5.33;;;;;27.13;47.67;100828.50;5056134;28;45423;-74
2023/06/15 10:11:40;;;;;;;;;5.00;5.00;;;;;27.11;47.46;100793.69;5035735;28;46254;-76
2023/06/15 10:14:14;;;;;;;;;7.00;6.00;;;;;27.42;47.49;100835.56;5036340;28;45575;-77
2023/06/15 10:16:42;;;;;;;;;6.00;5.00;;;;;27.09;47.17;100806.25;5039063;28;45493;-76
2023/06/15 10:19:12;;;;;;;;;6.00;5.00;;;;;27.23;47.50;100818.31;5036823;28;45323;-76
2023/06/15 10:21:42;;;;;;;;;8.67;5.67;;;;;27.27;47.82;100825.38;5042109;28;46474;-76
2023/06/15 10:24:15;;;;;;;;;7.00;6.00;;;;;27.47;47.64;100822.84;5055516;28;45747;-76
2023/06/15 10:26:41;;;;;;;;;6.00;5.00;;;;;27.81;46.84;100835.03;5033884;28;45549;-75
2023/06/15 10:29:20;;;;;;;;;6.67;6.00;;;;;28.08;46.40;100834.97;5039877;28;45457;-76
2023/06/15 10:31:47;;;;;;;;;6.33;5.00;;;;;28.15;45.65;100820.34;5045410;28;46129;-76
2023/06/15 10:34:26;;;;;;;;;4.67;4.00;;;;;27.95;45.77;100823.81;5035820;28;45481;-76
2023/06/15 10:37:12;;;;;;;;;5.67;5.67;;;;;28.01;45.64;100826.25;5051819;28;45410;-75
2023/06/15 10:39:44;;;;;;;;;6.67;6.00;;;;;28.40;45.27;100827.47;5031887;28;45662;-76
2023/06/15 10:42:13;;;;;;;;;5.33;5.33;;;;;28.84;44.99;100824.81;5040883;28;45455;-76
2023/06/15 10:44:38;;;;;;;;;6.00;5.00;;;;;29.13;44.18;100829.00;5036118;28;45516;-76
2023/06/15 10:47:12;;;;;;;;;5.00;5.00;;;;;29.12;43.48;100828.09;5039984;28;45384;-76
2023/06/15 10:49:50;;;;;;;;;7.67;6.33;;;;;29.09;42.79;100830.91;5043782;28;45465;-76
2023/06/15 10:52:16;;;;;;;;;6.00;6.00;;;;;28.95;43.50;100836.88;5050757;28;46230;-75
2023/06/15 10:54:42;;;;;;;;;10.00;8.00;;;;;29.33;43.68;100836.22;5035274;28;46033;-76
2023/06/15 10:57:07;;;;;;;;;7.67;7.67;;;;;29.68;41.98;100833.75;5044703;28;45398;-76
2023/06/15 10:59:53;;;;;;;;;5.00;5.00;;;;;29.61;42.88;100827.78;5053690;28;45532;-76
2023/06/15 11:02:27;;;;;;;;;5.67;5.67;;;;;29.63;41.83;100825.91;5021315;28;46872;-76
2023/06/15 11:05:03;;;;;;;;;5.67;5.67;;;;;29.45;42.13;100803.38;5046111;28;45493;-76
2023/06/15 11:07:37;;;;;;;;;6.67;6.33;;;;;29.70;42.73;100819.28;5037155;28;45480;-76
2023/06/15 11:10:13;;;;;;;;;5.33;5.33;;;;;29.84;42.04;100829.44;5034189;28;45587;-76
2023/06/15 11:12:44;;;;;;;;;6.00;6.00;;;;;30.02;41.42;100816.06;5035327;28;46018;-76
2023/06/15 11:15:13;;;;;;;;;6.00;6.00;;;;;30.16;41.62;100815.41;5025090;28;45304;-76
2023/06/15 11:17:59;;;;;;;;;5.00;5.00;;;;;30.31;41.78;100820.97;5051227;28;45342;-76
2023/06/15 11:20:59;;;;;;;;;7.33;7.00;;;;;30.44;39.98;100802.41;5018425;28;45495;-76
2023/06/15 11:23:29;;;;;;;;;4.00;4.00;;;;;30.45;40.62;100820.31;5039165;28;46186;-75
2023/06/15 11:25:55;;;;;;;;;6.00;6.00;;;;;29.63;42.08;100819.66;5053718;28;45433;-76